sensor_id;sensor_type;location;lat;lon;timestamp;P1;durP1;ratioP1;P2;durP2;ratioP2
11422;SDS011;5768;51.476;7.210;2023-07-31T00:00:57;8.70;;;4.40;;
11422;SDS011;5768;51.476;7.210;2023-07-31T00:06:01;3.80;;;2.40;;
11422;SDS011;5768;51.476;7.210;2023-07-31T00:11:03;7.30;;;3.92;;
11422;SDS011;5768;51.476;7.210;2023-07-31T00:16:05;6.70;;;3.55;;
11422;SDS011;5768;51.476;7.210;2023-07-31T00:21:09;7.93;;;4.00;;
11422;SDS011;5768;51.476;7.210;2023-07-31T00:26:11;9.02;;;3.58;;
11422;SDS011;5768;51.476;7.210;2023-07-31T00:31:13;12.63;;;4.15;;
11422;SDS011;5768;51.476;7.210;2023-07-31T00:36:17;9.23;;;4.18;;
11422;SDS011;5768;51.476;7.210;2023-07-31T00:41:19;8.30;;;3.83;;
11422;SDS011;5768;51.476;7.210;2023-07-31T00:46:21;8.05;;;3.28;;
11422;SDS011;5768;51.476;7.210;2023-07-31T00:51:25;12.88;;;5.03;;
11422;SDS011;5768;51.476;7.210;2023-07-31T00:56:27;9.45;;;3.40;;
11422;SDS011;5768;51.476;7.210;2023-07-31T01:01:30;10.05;;;4.63;;
11422;SDS011;5768;51.476;7.210;2023-07-31T01:06:38;10.57;;;3.90;;
11422;SDS011;5768;51.476;7.210;2023-07-31T01:11:56;7.82;;;3.17;;
11422;SDS011;5768;51.476;7.210;2023-07-31T01:17:03;9.55;;;3.90;;
11422;SDS011;5768;51.476;7.210;2023-07-31T01:22:22;8.48;;;4.25;;
11422;SDS011;5768;51.476;7.210;2023-07-31T01:27:44;9.05;;;3.40;;
11422;SDS011;5768;51.476;7.210;2023-07-31T01:33:00;8.30;;;3.72;;
11422;SDS011;5768;51.476;7.210;2023-07-31T01:38:07;5.65;;;2.95;;
11422;SDS011;5768;51.476;7.210;2023-07-31T01:43:11;9.00;;;4.13;;
11422;SDS011;5768;51.476;7.210;2023-07-31T01:48:13;8.07;;;3.95;;
11422;SDS011;5768;51.476;7.210;2023-07-31T01:53:15;6.88;;;3.42;;
11422;SDS011;5768;51.476;7.210;2023-07-31T01:58:19;8.20;;;4.10;;
11422;SDS011;5768;51.476;7.210;2023-07-31T02:03:21;9.43;;;4.30;;
11422;SDS011;5768;51.476;7.210;2023-07-31T02:08:24;11.02;;;4.65;;
11422;SDS011;5768;51.476;7.210;2023-07-31T02:13:28;7.47;;;3.45;;
11422;SDS011;5768;51.476;7.210;2023-07-31T02:18:30;7.35;;;3.70;;
11422;SDS011;5768;51.476;7.210;2023-07-31T02:23:32;7.95;;;4.10;;
11422;SDS011;5768;51.476;7.210;2023-07-31T02:28:38;10.88;;;4.05;;
11422;SDS011;5768;51.476;7.210;2023-07-31T02:33:43;7.82;;;3.50;;
11422;SDS011;5768;51.476;7.210;2023-07-31T02:38:45;10.40;;;4.28;;
11422;SDS011;5768;51.476;7.210;2023-07-31T02:43:48;5.70;;;3.67;;
11422;SDS011;5768;51.476;7.210;2023-07-31T02:48:51;6.85;;;4.25;;
11422;SDS011;5768;51.476;7.210;2023-07-31T02:53:53;5.60;;;3.20;;
11422;SDS011;5768;51.476;7.210;2023-07-31T02:58:57;8.15;;;4.30;;
11422;SDS011;5768;51.476;7.210;2023-07-31T03:03:59;6.68;;;2.85;;
11422;SDS011;5768;51.476;7.210;2023-07-31T03:09:01;9.27;;;4.32;;
11422;SDS011;5768;51.476;7.210;2023-07-31T03:14:05;6.78;;;3.33;;
11422;SDS011;5768;51.476;7.210;2023-07-31T03:19:07;9.60;;;3.53;;
11422;SDS011;5768;51.476;7.210;2023-07-31T03:24:09;8.48;;;3.65;;
11422;SDS011;5768;51.476;7.210;2023-07-31T03:29:13;6.20;;;3.28;;
11422;SDS011;5768;51.476;7.210;2023-07-31T03:34:15;8.30;;;4.13;;
11422;SDS011;5768;51.476;7.210;2023-07-31T03:39:18;8.73;;;4.88;;
11422;SDS011;5768;51.476;7.210;2023-07-31T03:44:22;10.63;;;4.35;;
11422;SDS011;5768;51.476;7.210;2023-07-31T03:49:24;10.68;;;4.43;;
11422;SDS011;5768;51.476;7.210;2023-07-31T03:54:27;8.95;;;3.47;;
11422;SDS011;5768;51.476;7.210;2023-07-31T03:59:30;6.10;;;3.05;;
11422;SDS011;5768;51.476;7.210;2023-07-31T04:04:33;6.03;;;3.42;;
11422;SDS011;5768;51.476;7.210;2023-07-31T04:09:35;5.43;;;3.35;;
11422;SDS011;5768;51.476;7.210;2023-07-31T04:14:38;9.32;;;3.53;;
11422;SDS011;5768;51.476;7.210;2023-07-31T04:19:41;5.30;;;3.22;;
11422;SDS011;5768;51.476;7.210;2023-07-31T04:24:43;9.30;;;4.07;;
11422;SDS011;5768;51.476;7.210;2023-07-31T04:29:46;7.15;;;3.75;;
11422;SDS011;5768;51.476;7.210;2023-07-31T04:34:49;10.48;;;3.83;;
11422;SDS011;5768;51.476;7.210;2023-07-31T04:39:51;11.98;;;4.55;;
11422;SDS011;5768;51.476;7.210;2023-07-31T04:44:55;8.77;;;4.15;;
11422;SDS011;5768;51.476;7.210;2023-07-31T04:49:57;9.77;;;3.78;;
11422;SDS011;5768;51.476;7.210;2023-07-31T04:54:59;9.90;;;4.10;;
11422;SDS011;5768;51.476;7.210;2023-07-31T05:00:03;7.43;;;4.00;;
11422;SDS011;5768;51.476;7.210;2023-07-31T05:05:06;7.20;;;3.83;;
11422;SDS011;5768;51.476;7.210;2023-07-31T05:10:09;9.35;;;4.68;;
11422;SDS011;5768;51.476;7.210;2023-07-31T05:15:13;8.20;;;3.40;;
11422;SDS011;5768;51.476;7.210;2023-07-31T05:20:15;9.13;;;4.20;;
11422;SDS011;5768;51.476;7.210;2023-07-31T05:25:18;12.50;;;4.60;;
11422;SDS011;5768;51.476;7.210;2023-07-31T05:30:21;10.43;;;4.63;;
11422;SDS011;5768;51.476;7.210;2023-07-31T05:35:27;7.72;;;4.50;;
11422;SDS011;5768;51.476;7.210;2023-07-31T05:40:35;8.45;;;4.47;;
11422;SDS011;5768;51.476;7.210;2023-07-31T05:45:46;7.18;;;4.65;;
11422;SDS011;5768;51.476;7.210;2023-07-31T05:50:48;5.93;;;3.80;;
11422;SDS011;5768;51.476;7.210;2023-07-31T05:55:51;7.03;;;5.00;;
11422;SDS011;5768;51.476;7.210;2023-07-31T06:00:54;11.85;;;4.05;;
11422;SDS011;5768;51.476;7.210;2023-07-31T06:05:57;9.18;;;4.97;;
11422;SDS011;5768;51.476;7.210;2023-07-31T06:11:00;6.50;;;3.83;;
11422;SDS011;5768;51.476;7.210;2023-07-31T06:16:04;6.95;;;4.50;;
11422;SDS011;5768;51.476;7.210;2023-07-31T06:21:06;9.10;;;4.40;;
11422;SDS011;5768;51.476;7.210;2023-07-31T06:26:08;6.72;;;4.63;;
11422;SDS011;5768;51.476;7.210;2023-07-31T06:31:12;7.78;;;4.75;;
11422;SDS011;5768;51.476;7.210;2023-07-31T06:36:14;7.65;;;4.30;;
11422;SDS011;5768;51.476;7.210;2023-07-31T06:41:16;7.35;;;4.80;;
11422;SDS011;5768;51.476;7.210;2023-07-31T06:46:20;7.03;;;4.57;;
11422;SDS011;5768;51.476;7.210;2023-07-31T06:51:22;7.97;;;5.00;;
11422;SDS011;5768;51.476;7.210;2023-07-31T06:56:25;8.85;;;4.68;;
11422;SDS011;5768;51.476;7.210;2023-07-31T07:01:29;5.43;;;4.28;;
11422;SDS011;5768;51.476;7.210;2023-07-31T07:06:31;5.95;;;4.03;;
11422;SDS011;5768;51.476;7.210;2023-07-31T07:11:33;6.25;;;3.85;;
11422;SDS011;5768;51.476;7.210;2023-07-31T07:16:39;5.75;;;4.07;;
11422;SDS011;5768;51.476;7.210;2023-07-31T07:21:42;6.35;;;4.13;;
11422;SDS011;5768;51.476;7.210;2023-07-31T07:26:44;7.43;;;4.43;;
11422;SDS011;5768;51.476;7.210;2023-07-31T07:31:48;6.65;;;3.70;;
11422;SDS011;5768;51.476;7.210;2023-07-31T07:36:50;6.40;;;3.40;;
11422;SDS011;5768;51.476;7.210;2023-07-31T07:41:52;6.18;;;3.83;;
11422;SDS011;5768;51.476;7.210;2023-07-31T07:46:56;5.43;;;3.88;;
11422;SDS011;5768;51.476;7.210;2023-07-31T07:52:11;7.55;;;3.95;;
11422;SDS011;5768;51.476;7.210;2023-07-31T07:57:13;4.93;;;4.03;;
11422;SDS011;5768;51.476;7.210;2023-07-31T08:02:17;5.50;;;3.65;;
11422;SDS011;5768;51.476;7.210;2023-07-31T08:07:19;4.40;;;3.35;;
11422;SDS011;5768;51.476;7.210;2023-07-31T08:12:22;5.60;;;2.22;;
11422;SDS011;5768;51.476;7.210;2023-07-31T08:17:25;7.07;;;3.83;;
11422;SDS011;5768;51.476;7.210;2023-07-31T08:22:27;6.80;;;3.75;;
11422;SDS011;5768;51.476;7.210;2023-07-31T08:27:32;3.58;;;2.30;;
11422;SDS011;5768;51.476;7.210;2023-07-31T08:32:36;4.50;;;3.15;;
11422;SDS011;5768;51.476;7.210;2023-07-31T08:37:38;5.15;;;2.80;;
11422;SDS011;5768;51.476;7.210;2023-07-31T08:42:44;5.85;;;2.83;;
11422;SDS011;5768;51.476;7.210;2023-07-31T08:47:49;4.20;;;3.38;;
11422;SDS011;5768;51.476;7.210;2023-07-31T08:52:53;4.05;;;3.08;;
11422;SDS011;5768;51.476;7.210;2023-07-31T08:57:55;3.78;;;2.90;;
11422;SDS011;5768;51.476;7.210;2023-07-31T09:03:01;4.63;;;2.50;;
11422;SDS011;5768;51.476;7.210;2023-07-31T09:08:09;2.55;;;2.33;;
11422;SDS011;5768;51.476;7.210;2023-07-31T09:13:13;2.42;;;2.10;;
11422;SDS011;5768;51.476;7.210;2023-07-31T09:18:17;5.85;;;3.13;;
11422;SDS011;5768;51.476;7.210;2023-07-31T09:23:22;3.33;;;2.85;;
11422;SDS011;5768;51.476;7.210;2023-07-31T09:28:30;2.08;;;1.80;;
11422;SDS011;5768;51.476;7.210;2023-07-31T09:33:34;4.47;;;2.42;;
11422;SDS011;5768;51.476;7.210;2023-07-31T09:39:01;3.78;;;2.35;;
11422;SDS011;5768;51.476;7.210;2023-07-31T09:44:04;3.60;;;2.28;;
11422;SDS011;5768;51.476;7.210;2023-07-31T09:49:09;2.67;;;2.35;;
11422;SDS011;5768;51.476;7.210;2023-07-31T09:54:13;3.05;;;2.50;;
11422;SDS011;5768;51.476;7.210;2023-07-31T09:59:17;3.20;;;2.40;;
11422;SDS011;5768;51.476;7.210;2023-07-31T10:04:22;1.98;;;1.88;;
11422;SDS011;5768;51.476;7.210;2023-07-31T10:09:29;2.42;;;2.22;;
11422;SDS011;5768;51.476;7.210;2023-07-31T10:14:34;2.97;;;1.95;;
11422;SDS011;5768;51.476;7.210;2023-07-31T10:19:40;2.50;;;1.98;;
11422;SDS011;5768;51.476;7.210;2023-07-31T10:24:45;3.03;;;2.22;;
11422;SDS011;5768;51.476;7.210;2023-07-31T10:29:48;2.80;;;2.20;;
11422;SDS011;5768;51.476;7.210;2023-07-31T10:34:53;2.25;;;2.05;;
11422;SDS011;5768;51.476;7.210;2023-07-31T10:40:00;2.53;;;2.15;;
11422;SDS011;5768;51.476;7.210;2023-07-31T10:45:06;2.40;;;1.73;;
11422;SDS011;5768;51.476;7.210;2023-07-31T10:50:12;2.10;;;1.90;;
11422;SDS011;5768;51.476;7.210;2023-07-31T10:55:23;3.75;;;2.35;;
11422;SDS011;5768;51.476;7.210;2023-07-31T11:00:33;3.60;;;2.50;;
11422;SDS011;5768;51.476;7.210;2023-07-31T11:05:44;3.97;;;3.22;;
11422;SDS011;5768;51.476;7.210;2023-07-31T11:11:04;4.63;;;2.70;;
11422;SDS011;5768;51.476;7.210;2023-07-31T11:16:08;4.03;;;2.75;;
11422;SDS011;5768;51.476;7.210;2023-07-31T11:21:13;3.70;;;2.60;;
11422;SDS011;5768;51.476;7.210;2023-07-31T11:26:17;4.22;;;2.70;;
11422;SDS011;5768;51.476;7.210;2023-07-31T11:31:20;6.03;;;3.20;;
11422;SDS011;5768;51.476;7.210;2023-07-31T11:36:24;4.57;;;3.00;;
11422;SDS011;5768;51.476;7.210;2023-07-31T11:41:28;5.38;;;2.22;;
11422;SDS011;5768;51.476;7.210;2023-07-31T11:46:30;4.40;;;3.20;;
11422;SDS011;5768;51.476;7.210;2023-07-31T11:51:34;3.85;;;2.70;;
11422;SDS011;5768;51.476;7.210;2023-07-31T11:56:37;4.35;;;2.70;;
11422;SDS011;5768;51.476;7.210;2023-07-31T12:01:39;3.28;;;2.60;;
11422;SDS011;5768;51.476;7.210;2023-07-31T12:06:44;4.10;;;2.30;;
11422;SDS011;5768;51.476;7.210;2023-07-31T12:11:47;4.13;;;2.38;;
11422;SDS011;5768;51.476;7.210;2023-07-31T12:16:52;3.05;;;2.53;;
11422;SDS011;5768;51.476;7.210;2023-07-31T12:21:57;2.17;;;1.98;;
11422;SDS011;5768;51.476;7.210;2023-07-31T12:27:07;4.68;;;1.90;;
11422;SDS011;5768;51.476;7.210;2023-07-31T12:32:23;2.55;;;1.63;;
11422;SDS011;5768;51.476;7.210;2023-07-31T12:37:30;3.05;;;2.13;;
11422;SDS011;5768;51.476;7.210;2023-07-31T12:42:34;2.55;;;2.20;;
11422;SDS011;5768;51.476;7.210;2023-07-31T12:47:36;4.13;;;2.20;;
11422;SDS011;5768;51.476;7.210;2023-07-31T12:52:40;3.22;;;2.70;;
11422;SDS011;5768;51.476;7.210;2023-07-31T12:57:42;5.70;;;2.50;;
11422;SDS011;5768;51.476;7.210;2023-07-31T13:02:45;3.92;;;2.35;;
11422;SDS011;5768;51.476;7.210;2023-07-31T13:07:48;2.30;;;2.10;;
11422;SDS011;5768;51.476;7.210;2023-07-31T13:12:51;3.35;;;2.50;;
11422;SDS011;5768;51.476;7.210;2023-07-31T13:17:53;2.55;;;1.83;;
11422;SDS011;5768;51.476;7.210;2023-07-31T13:22:56;3.03;;;1.90;;
11422;SDS011;5768;51.476;7.210;2023-07-31T13:27:59;3.95;;;1.50;;
11422;SDS011;5768;51.476;7.210;2023-07-31T13:33:01;3.08;;;2.13;;
11422;SDS011;5768;51.476;7.210;2023-07-31T13:38:05;3.00;;;2.22;;
11422;SDS011;5768;51.476;7.210;2023-07-31T13:43:07;2.95;;;2.25;;
11422;SDS011;5768;51.476;7.210;2023-07-31T13:48:09;2.67;;;2.08;;
11422;SDS011;5768;51.476;7.210;2023-07-31T13:53:13;4.35;;;2.63;;
11422;SDS011;5768;51.476;7.210;2023-07-31T13:58:15;4.43;;;2.40;;
11422;SDS011;5768;51.476;7.210;2023-07-31T14:03:18;3.60;;;2.20;;
11422;SDS011;5768;51.476;7.210;2023-07-31T14:08:22;2.53;;;2.10;;
11422;SDS011;5768;51.476;7.210;2023-07-31T14:13:24;4.53;;;2.53;;
11422;SDS011;5768;51.476;7.210;2023-07-31T14:18:26;4.40;;;2.55;;
11422;SDS011;5768;51.476;7.210;2023-07-31T14:23:30;3.03;;;2.17;;
11422;SDS011;5768;51.476;7.210;2023-07-31T14:28:32;3.97;;;2.58;;
11422;SDS011;5768;51.476;7.210;2023-07-31T14:33:35;3.35;;;2.38;;
11422;SDS011;5768;51.476;7.210;2023-07-31T14:38:38;2.55;;;2.08;;
11422;SDS011;5768;51.476;7.210;2023-07-31T14:43:41;4.38;;;2.25;;
11422;SDS011;5768;51.476;7.210;2023-07-31T14:48:43;5.13;;;2.88;;
11422;SDS011;5768;51.476;7.210;2023-07-31T14:53:47;3.95;;;3.03;;
11422;SDS011;5768;51.476;7.210;2023-07-31T14:58:49;4.70;;;2.78;;
11422;SDS011;5768;51.476;7.210;2023-07-31T15:03:51;5.10;;;2.90;;
11422;SDS011;5768;51.476;7.210;2023-07-31T15:08:55;4.53;;;3.15;;
11422;SDS011;5768;51.476;7.210;2023-07-31T15:13:58;4.93;;;2.80;;
11422;SDS011;5768;51.476;7.210;2023-07-31T15:19:00;4.25;;;2.88;;
11422;SDS011;5768;51.476;7.210;2023-07-31T15:24:04;5.35;;;3.17;;
11422;SDS011;5768;51.476;7.210;2023-07-31T15:29:06;5.15;;;3.47;;
11422;SDS011;5768;51.476;7.210;2023-07-31T15:34:11;4.57;;;3.10;;
11422;SDS011;5768;51.476;7.210;2023-07-31T15:39:16;4.85;;;3.67;;
11422;SDS011;5768;51.476;7.210;2023-07-31T15:44:18;3.95;;;3.30;;
11422;SDS011;5768;51.476;7.210;2023-07-31T15:49:21;5.22;;;3.60;;
11422;SDS011;5768;51.476;7.210;2023-07-31T15:54:25;4.55;;;3.53;;
11422;SDS011;5768;51.476;7.210;2023-07-31T15:59:27;6.38;;;3.55;;
11422;SDS011;5768;51.476;7.210;2023-07-31T16:04:30;5.45;;;3.70;;
11422;SDS011;5768;51.476;7.210;2023-07-31T16:09:34;4.68;;;4.25;;
11422;SDS011;5768;51.476;7.210;2023-07-31T16:14:37;5.22;;;3.53;;
11422;SDS011;5768;51.476;7.210;2023-07-31T16:19:39;6.10;;;3.78;;
11422;SDS011;5768;51.476;7.210;2023-07-31T16:24:43;8.85;;;3.60;;
11422;SDS011;5768;51.476;7.210;2023-07-31T16:29:45;4.60;;;3.85;;
11422;SDS011;5768;51.476;7.210;2023-07-31T16:34:47;5.28;;;3.47;;
11422;SDS011;5768;51.476;7.210;2023-07-31T16:39:51;5.22;;;4.20;;
11422;SDS011;5768;51.476;7.210;2023-07-31T16:44:53;7.65;;;4.32;;
11422;SDS011;5768;51.476;7.210;2023-07-31T16:49:55;4.35;;;3.70;;
11422;SDS011;5768;51.476;7.210;2023-07-31T16:54:59;5.10;;;4.05;;
11422;SDS011;5768;51.476;7.210;2023-07-31T17:00:02;4.55;;;3.42;;
11422;SDS011;5768;51.476;7.210;2023-07-31T17:05:05;5.82;;;3.13;;
11422;SDS011;5768;51.476;7.210;2023-07-31T17:10:10;4.80;;;3.05;;
11422;SDS011;5768;51.476;7.210;2023-07-31T17:15:13;4.13;;;3.00;;
11422;SDS011;5768;51.476;7.210;2023-07-31T17:20:16;2.85;;;2.55;;
11422;SDS011;5768;51.476;7.210;2023-07-31T17:25:19;3.78;;;2.13;;
11422;SDS011;5768;51.476;7.210;2023-07-31T17:30:22;4.72;;;3.00;;
11422;SDS011;5768;51.476;7.210;2023-07-31T17:35:24;5.75;;;2.28;;
11422;SDS011;5768;51.476;7.210;2023-07-31T17:40:28;2.97;;;2.50;;
11422;SDS011;5768;51.476;7.210;2023-07-31T17:45:32;3.42;;;2.60;;
11422;SDS011;5768;51.476;7.210;2023-07-31T17:50:35;2.90;;;2.60;;
11422;SDS011;5768;51.476;7.210;2023-07-31T17:55:39;3.03;;;2.53;;
11422;SDS011;5768;51.476;7.210;2023-07-31T18:00:42;4.90;;;2.65;;
11422;SDS011;5768;51.476;7.210;2023-07-31T18:05:45;4.03;;;2.88;;
11422;SDS011;5768;51.476;7.210;2023-07-31T18:10:49;2.67;;;2.47;;
11422;SDS011;5768;51.476;7.210;2023-07-31T18:15:51;3.05;;;2.75;;
11422;SDS011;5768;51.476;7.210;2023-07-31T18:20:53;3.72;;;2.88;;
11422;SDS011;5768;51.476;7.210;2023-07-31T18:25:57;3.70;;;3.30;;
11422;SDS011;5768;51.476;7.210;2023-07-31T18:30:59;3.00;;;2.70;;
11422;SDS011;5768;51.476;7.210;2023-07-31T18:36:03;2.83;;;2.50;;
11422;SDS011;5768;51.476;7.210;2023-07-31T18:41:07;2.65;;;2.30;;
11422;SDS011;5768;51.476;7.210;2023-07-31T18:46:10;2.42;;;2.20;;
11422;SDS011;5768;51.476;7.210;2023-07-31T18:51:12;2.40;;;2.20;;
11422;SDS011;5768;51.476;7.210;2023-07-31T18:56:16;3.22;;;1.83;;
11422;SDS011;5768;51.476;7.210;2023-07-31T19:01:19;1.50;;;1.40;;
11422;SDS011;5768;51.476;7.210;2023-07-31T19:06:21;2.35;;;1.77;;
11422;SDS011;5768;51.476;7.210;2023-07-31T19:11:25;1.75;;;1.60;;
11422;SDS011;5768;51.476;7.210;2023-07-31T19:16:30;1.70;;;1.60;;
11422;SDS011;5768;51.476;7.210;2023-07-31T19:21:32;1.63;;;1.52;;
11422;SDS011;5768;51.476;7.210;2023-07-31T19:26:36;1.92;;;1.73;;
11422;SDS011;5768;51.476;7.210;2023-07-31T19:31:39;2.90;;;1.58;;
11422;SDS011;5768;51.476;7.210;2023-07-31T19:36:42;1.67;;;1.55;;
11422;SDS011;5768;51.476;7.210;2023-07-31T19:41:49;1.27;;;1.15;;
11422;SDS011;5768;51.476;7.210;2023-07-31T19:46:51;2.30;;;1.33;;
11422;SDS011;5768;51.476;7.210;2023-07-31T19:51:53;1.50;;;1.40;;
11422;SDS011;5768;51.476;7.210;2023-07-31T19:56:57;1.83;;;1.42;;
11422;SDS011;5768;51.476;7.210;2023-07-31T20:01:59;1.23;;;1.13;;
11422;SDS011;5768;51.476;7.210;2023-07-31T20:07:01;1.77;;;1.40;;
11422;SDS011;5768;51.476;7.210;2023-07-31T20:12:07;1.30;;;1.10;;
11422;SDS011;5768;51.476;7.210;2023-07-31T20:17:09;2.45;;;1.80;;
11422;SDS011;5768;51.476;7.210;2023-07-31T20:22:12;2.45;;;1.70;;
11422;SDS011;5768;51.476;7.210;2023-07-31T20:27:17;4.53;;;1.35;;
11422;SDS011;5768;51.476;7.210;2023-07-31T20:32:21;1.52;;;1.42;;
11422;SDS011;5768;51.476;7.210;2023-07-31T20:37:23;2.70;;;1.70;;
11422;SDS011;5768;51.476;7.210;2023-07-31T20:42:27;1.40;;;1.30;;
11422;SDS011;5768;51.476;7.210;2023-07-31T20:47:29;1.55;;;1.30;;
11422;SDS011;5768;51.476;7.210;2023-07-31T20:52:31;1.35;;;1.25;;
11422;SDS011;5768;51.476;7.210;2023-07-31T20:57:35;2.55;;;1.52;;
11422;SDS011;5768;51.476;7.210;2023-07-31T21:02:40;1.92;;;1.63;;
11422;SDS011;5768;51.476;7.210;2023-07-31T21:07:42;1.60;;;1.50;;
11422;SDS011;5768;51.476;7.210;2023-07-31T21:12:46;2.28;;;1.58;;
11422;SDS011;5768;51.476;7.210;2023-07-31T21:17:48;2.70;;;1.38;;
11422;SDS011;5768;51.476;7.210;2023-07-31T21:22:50;2.42;;;1.77;;
11422;SDS011;5768;51.476;7.210;2023-07-31T21:27:54;1.95;;;1.30;;
11422;SDS011;5768;51.476;7.210;2023-07-31T21:32:56;1.92;;;1.52;;
11422;SDS011;5768;51.476;7.210;2023-07-31T21:37:59;1.48;;;1.30;;
11422;SDS011;5768;51.476;7.210;2023-07-31T21:43:03;1.38;;;1.27;;
11422;SDS011;5768;51.476;7.210;2023-07-31T21:48:05;2.70;;;1.48;;
11422;SDS011;5768;51.476;7.210;2023-07-31T21:53:08;1.70;;;1.40;;
11422;SDS011;5768;51.476;7.210;2023-07-31T21:58:14;1.42;;;1.10;;
11422;SDS011;5768;51.476;7.210;2023-07-31T22:03:16;1.23;;;1.13;;
11422;SDS011;5768;51.476;7.210;2023-07-31T22:08:18;2.13;;;1.60;;
11422;SDS011;5768;51.476;7.210;2023-07-31T22:13:22;1.83;;;1.58;;
11422;SDS011;5768;51.476;7.210;2023-07-31T22:18:24;2.92;;;1.60;;
11422;SDS011;5768;51.476;7.210;2023-07-31T22:23:26;3.45;;;1.70;;
11422;SDS011;5768;51.476;7.210;2023-07-31T22:28:30;1.90;;;1.60;;
11422;SDS011;5768;51.476;7.210;2023-07-31T22:33:32;1.63;;;1.52;;
11422;SDS011;5768;51.476;7.210;2023-07-31T22:38:34;1.70;;;1.48;;
11422;SDS011;5768;51.476;7.210;2023-07-31T22:43:38;1.00;;;1.00;;
11422;SDS011;5768;51.476;7.210;2023-07-31T22:48:40;1.23;;;1.08;;
11422;SDS011;5768;51.476;7.210;2023-07-31T22:53:43;1.13;;;1.02;;
11422;SDS011;5768;51.476;7.210;2023-07-31T22:58:46;1.17;;;1.10;;
11422;SDS011;5768;51.476;7.210;2023-07-31T23:03:48;1.73;;;1.00;;
11422;SDS011;5768;51.476;7.210;2023-07-31T23:08:51;3.72;;;1.30;;
11422;SDS011;5768;51.476;7.210;2023-07-31T23:13:54;1.20;;;1.10;;
11422;SDS011;5768;51.476;7.210;2023-07-31T23:18:57;1.60;;;1.50;;
11422;SDS011;5768;51.476;7.210;2023-07-31T23:23:59;1.60;;;1.50;;
11422;SDS011;5768;51.476;7.210;2023-07-31T23:29:03;1.23;;;1.13;;
11422;SDS011;5768;51.476;7.210;2023-07-31T23:34:05;1.45;;;1.17;;
11422;SDS011;5768;51.476;7.210;2023-07-31T23:39:07;1.05;;;0.90;;
11422;SDS011;5768;51.476;7.210;2023-07-31T23:44:11;1.08;;;1.05;;
11422;SDS011;5768;51.476;7.210;2023-07-31T23:49:16;1.30;;;1.20;;
11422;SDS011;5768;51.476;7.210;2023-07-31T23:54:18;1.73;;;1.20;;
11422;SDS011;5768;51.476;7.210;2023-07-31T23:59:22;1.30;;;1.20;;
